Time;durP1;ratioP1;P1;durP2;ratioP2;P2;SDS_P1;SDS_P2;PMS_P1;PMS_P2;Temp;Humidity;BMP_temperature;BMP_pressure;BME280_temperature;BME280_humidity;BME280_pressure;Samples;Min_cycle;Max_cycle;Signal;HPM_P1;HPM_P2
2023/10/24 00:01:47;;;;;;;10.53;7.53;;;8.50;99.90;;;;;;5036913;28;20285;-81
2023/10/24 00:04:14;;;;;;;11.37;8.33;;;8.50;99.90;;;;;;5040277;28;20230;-80
2023/10/24 00:06:42;;;;;;;9.30;8.20;;;8.50;99.90;;;;;;5037622;28;20317;-79
2023/10/24 00:09:08;;;;;;;10.27;8.67;;;8.50;99.90;;;;;;5042575;28;20224;-79
2023/10/24 00:11:35;;;;;;;11.00;8.40;;;8.60;99.90;;;;;;5040117;28;20231;-80
2023/10/24 00:14:02;;;;;;;11.40;8.40;;;8.60;99.90;;;;;;5046176;28;20235;-80
2023/10/24 00:16:29;;;;;;;11.80;8.10;;;8.60;99.90;;;;;;5042524;28;20747;-79
2023/10/24 00:18:55;;;;;;;9.97;7.93;;;8.60;99.90;;;;;;5044263;28;20219;-80
2023/10/24 00:21:22;;;;;;;13.63;8.33;;;8.60;99.90;;;;;;5044950;28;20305;-80
2023/10/24 00:23:50;;;;;;;10.67;8.20;;;8.60;99.90;;;;;;5045184;28;20227;-80
2023/10/24 00:26:17;;;;;;;11.13;8.10;;;8.70;99.90;;;;;;5038040;28;20222;-80
2023/10/24 00:28:49;;;;;;;9.63;7.73;;;8.70;99.90;;;;;;5042045;28;20493;-80
2023/10/24 00:31:16;;;;;;;9.40;8.10;;;8.70;99.90;;;;;;5040310;28;20221;-80
2023/10/24 00:33:42;;;;;;;9.40;7.60;;;8.70;99.90;;;;;;5048007;28;20228;-80
2023/10/24 00:36:09;;;;;;;10.87;8.47;;;8.70;99.90;;;;;;5040043;28;20310;-80
2023/10/24 00:38:36;;;;;;;10.23;7.93;;;8.70;99.90;;;;;;5040978;28;20228;-79
2023/10/24 00:41:04;;;;;;;12.63;8.37;;;8.80;99.90;;;;;;5041035;28;20231;-80
2023/10/24 00:43:30;;;;;;;13.67;8.63;;;8.80;99.90;;;;;;5034461;28;20313;-80
2023/10/24 00:45:57;;;;;;;9.73;7.93;;;8.90;99.90;;;;;;5034540;28;20353;-80
2023/10/24 00:48:28;;;;;;;10.33;8.03;;;8.80;99.90;;;;;;5035728;28;20265;-80
2023/10/24 00:50:55;;;;;;;10.20;8.43;;;8.80;99.90;;;;;;5056630;28;20239;-80
2023/10/24 00:53:22;;;;;;;10.20;8.20;;;8.90;99.90;;;;;;5041499;28;20223;-80
2023/10/24 00:55:50;;;;;;;11.83;8.50;;;8.90;99.90;;;;;;5041357;28;20222;-80
2023/10/24 00:58:19;;;;;;;10.37;9.00;;;8.90;99.90;;;;;;5034696;28;20223;-80
2023/10/24 01:00:47;;;;;;;12.03;9.07;;;8.90;99.90;;;;;;5041100;28;20223;-80
2023/10/24 01:03:15;;;;;;;11.20;8.50;;;8.90;99.90;;;;;;5035969;28;20228;-80
2023/10/24 01:05:42;;;;;;;11.50;8.27;;;8.90;99.90;;;;;;5040330;28;20497;-80
2023/10/24 01:08:09;;;;;;;9.77;8.40;;;9.00;99.90;;;;;;5035041;28;21363;-80
2023/10/24 01:10:37;;;;;;;10.63;8.30;;;9.00;99.90;;;;;;5041148;28;20282;-80
2023/10/24 01:13:05;;;;;;;10.87;8.93;;;9.00;99.90;;;;;;5037237;28;20226;-80
2023/10/24 01:15:33;;;;;;;13.60;9.00;;;9.00;99.90;;;;;;5036540;28;20228;-80
2023/10/24 01:18:02;;;;;;;10.57;8.57;;;9.00;99.90;;;;;;5041463;28;20604;-80
2023/10/24 01:20:29;;;;;;;10.93;8.23;;;9.00;99.90;;;;;;5055702;28;20607;-80
2023/10/24 01:22:57;;;;;;;9.93;8.33;;;9.00;99.90;;;;;;5043049;28;20344;-80
2023/10/24 01:25:25;;;;;;;10.33;8.70;;;9.10;99.90;;;;;;5051398;28;20720;-80
2023/10/24 01:27:54;;;;;;;10.00;8.33;;;9.10;99.90;;;;;;5056982;28;20231;-81
2023/10/24 01:30:21;;;;;;;10.90;9.50;;;9.10;99.90;;;;;;5040388;28;20571;-80
2023/10/24 01:32:48;;;;;;;10.87;8.27;;;9.10;99.90;;;;;;5040395;28;20306;-80
2023/10/24 01:35:15;;;;;;;11.33;8.50;;;9.10;99.90;;;;;;5041887;28;20255;-80
2023/10/24 01:37:43;;;;;;;11.13;8.60;;;9.10;99.90;;;;;;5043858;28;20714;-80
2023/10/24 01:40:12;;;;;;;10.37;8.07;;;9.10;99.90;;;;;;5041944;28;20231;-79
2023/10/24 01:42:39;;;;;;;11.67;9.20;;;9.10;99.90;;;;;;5043427;28;20226;-79
2023/10/24 01:45:07;;;;;;;11.07;8.50;;;9.10;99.90;;;;;;5032709;28;20823;-79
2023/10/24 01:47:34;;;;;;;10.10;9.10;;;9.10;99.90;;;;;;5046397;28;20364;-81
2023/10/24 01:50:02;;;;;;;11.00;8.60;;;9.20;99.90;;;;;;5039814;28;20278;-81
2023/10/24 01:52:29;;;;;;;11.33;8.63;;;9.20;99.90;;;;;;5042115;28;20228;-81
2023/10/24 01:54:56;;;;;;;11.13;8.87;;;9.20;99.90;;;;;;5044183;28;20254;-80
2023/10/24 01:57:24;;;;;;;11.00;8.50;;;9.20;99.90;;;;;;5040178;28;20319;-80
2023/10/24 01:59:51;;;;;;;11.00;8.33;;;9.20;99.90;;;;;;5037861;28;20260;-79
2023/10/24 02:02:18;;;;;;;11.90;8.70;;;9.20;99.90;;;;;;5037878;28;20244;-80
2023/10/24 02:04:45;;;;;;;10.37;8.37;;;9.20;99.90;;;;;;5042186;28;20232;-80
2023/10/24 02:07:12;;;;;;;8.73;7.70;;;9.20;99.90;;;;;;5052932;28;20221;-80
2023/10/24 02:09:40;;;;;;;13.03;8.40;;;9.20;99.90;;;;;;5041286;28;20220;-80
2023/10/24 02:12:08;;;;;;;10.53;8.40;;;9.20;99.90;;;;;;5038993;28;20213;-80
2023/10/24 02:14:36;;;;;;;10.30;8.60;;;9.20;99.90;;;;;;5045431;28;20717;-79
2023/10/24 02:17:03;;;;;;;10.83;8.63;;;9.20;99.90;;;;;;5056768;28;20577;-80
2023/10/24 02:19:30;;;;;;;11.80;8.60;;;9.20;99.90;;;;;;5038758;28;20275;-79
2023/10/24 02:21:58;;;;;;;10.03;8.30;;;9.20;99.90;;;;;;5045999;28;20435;-79
2023/10/24 02:24:25;;;;;;;10.63;7.60;;;9.20;99.90;;;;;;5040511;28;20651;-79
2023/10/24 02:26:52;;;;;;;11.67;8.13;;;9.30;99.90;;;;;;5041403;28;20307;-80
2023/10/24 02:29:18;;;;;;;11.97;8.60;;;9.20;99.90;;;;;;5040570;28;20307;-79
2023/10/24 02:31:46;;;;;;;11.37;9.00;;;9.30;99.90;;;;;;5047631;28;21060;-80
2023/10/24 02:34:13;;;;;;;11.63;8.37;;;9.30;99.90;;;;;;5044472;28;20705;-80
2023/10/24 02:36:39;;;;;;;12.03;8.40;;;9.20;99.90;;;;;;5049523;28;20516;-80
2023/10/24 02:39:06;;;;;;;10.00;9.00;;;9.20;99.90;;;;;;5044250;28;20224;-80
2023/10/24 02:41:33;;;;;;;10.70;8.40;;;9.20;99.90;;;;;;5043239;28;20443;-80
2023/10/24 02:44:00;;;;;;;9.37;8.30;;;9.20;99.90;;;;;;5048602;28;20238;-80
2023/10/24 02:46:26;;;;;;;10.23;8.03;;;9.20;99.90;;;;;;5048962;28;20235;-81
2023/10/24 02:48:55;;;;;;;9.47;8.13;;;9.20;99.90;;;;;;5045503;28;20670;-81
2023/10/24 02:51:22;;;;;;;11.03;8.83;;;9.20;99.90;;;;;;5043684;28;20654;-81
2023/10/24 02:53:48;;;;;;;11.00;8.33;;;9.20;99.90;;;;;;5045203;28;20237;-80
2023/10/24 02:56:15;;;;;;;10.43;8.67;;;9.20;99.90;;;;;;5039254;28;20246;-80
2023/10/24 02:58:42;;;;;;;12.33;8.80;;;9.20;99.90;;;;;;5044597;28;20261;-81
2023/10/24 03:01:10;;;;;;;10.43;8.30;;;9.30;99.90;;;;;;5040423;28;20525;-80
2023/10/24 03:03:36;;;;;;;9.63;8.37;;;9.30;99.90;;;;;;5037776;28;20224;-80
2023/10/24 03:06:13;;;;;;;11.07;8.73;;;9.30;99.90;;;;;;5044533;28;20226;-81
2023/10/24 03:08:40;;;;;;;13.30;8.90;;;9.40;99.90;;;;;;5060939;28;20231;-81
2023/10/24 03:11:07;;;;;;;11.93;8.70;;;9.40;99.90;;;;;;5041981;28;20216;-81
2023/10/24 03:13:33;;;;;;;10.17;8.17;;;9.40;99.90;;;;;;5045089;28;20320;-80
2023/10/24 03:16:03;;;;;;;9.33;8.03;;;9.40;99.90;;;;;;5041251;28;20258;-81
2023/10/24 03:18:30;;;;;;;9.40;7.80;;;9.40;99.90;;;;;;5039139;28;20551;-80
2023/10/24 03:20:57;;;;;;;12.30;7.97;;;9.50;99.90;;;;;;5041986;28;20227;-80
2023/10/24 03:23:25;;;;;;;11.37;8.67;;;9.50;99.90;;;;;;5042713;28;20255;-80
2023/10/24 03:25:52;;;;;;;11.17;7.90;;;9.50;99.90;;;;;;5041288;28;20220;-80
2023/10/24 03:28:20;;;;;;;9.80;8.67;;;9.50;99.90;;;;;;5037683;28;20246;-79
2023/10/24 03:30:48;;;;;;;9.23;7.80;;;9.50;99.90;;;;;;5047076;28;20584;-80
2023/10/24 03:33:15;;;;;;;10.90;8.27;;;9.50;99.90;;;;;;5042665;28;20314;-80
2023/10/24 03:35:42;;;;;;;11.87;8.37;;;9.50;99.90;;;;;;5045842;28;20247;-81
2023/10/24 03:38:08;;;;;;;11.13;8.77;;;9.50;99.90;;;;;;5042759;28;20289;-81
2023/10/24 03:40:39;;;;;;;13.87;8.87;;;9.50;99.90;;;;;;5041372;28;20231;-79
2023/10/24 03:43:06;;;;;;;10.10;8.07;;;9.50;99.90;;;;;;5048062;28;20301;-79
2023/10/24 03:45:34;;;;;;;9.50;8.50;;;9.50;99.90;;;;;;5048611;28;20283;-80
2023/10/24 03:48:01;;;;;;;10.93;8.50;;;9.50;99.90;;;;;;5042879;28;20319;-80
2023/10/24 03:50:28;;;;;;;11.93;9.13;;;9.50;99.90;;;;;;5039797;28;20374;-81
2023/10/24 03:52:54;;;;;;;13.63;9.43;;;9.60;99.90;;;;;;5042590;28;20234;-82
2023/10/24 03:55:21;;;;;;;12.10;9.27;;;9.60;99.90;;;;;;5052002;28;20230;-81
2023/10/24 03:57:49;;;;;;;11.40;8.67;;;9.60;99.90;;;;;;5045552;28;20230;-82
2023/10/24 04:00:16;;;;;;;12.90;9.33;;;9.60;99.90;;;;;;5044594;28;20243;-81
2023/10/24 04:02:46;;;;;;;14.07;9.60;;;9.60;99.90;;;;;;5040022;28;20222;-81
2023/10/24 04:05:12;;;;;;;10.80;9.30;;;9.60;99.90;;;;;;5035646;28;20598;-81
2023/10/24 04:07:39;;;;;;;13.63;9.73;;;9.60;99.90;;;;;;5047526;28;20232;-81
2023/10/24 04:10:07;;;;;;;10.83;8.77;;;9.60;99.90;;;;;;5046183;28;20827;-80
2023/10/24 04:12:34;;;;;;;12.13;9.13;;;9.60;99.90;;;;;;5043728;28;20242;-79
2023/10/24 04:15:03;;;;;;;13.93;9.60;;;9.60;99.90;;;;;;5045872;28;20753;-78
2023/10/24 04:17:30;;;;;;;11.73;9.37;;;9.60;99.90;;;;;;5042836;28;20584;-80
2023/10/24 04:19:57;;;;;;;12.03;9.30;;;9.60;99.90;;;;;;5046584;28;20233;-79
2023/10/24 04:22:23;;;;;;;29.43;10.07;;;9.60;99.90;;;;;;5035496;28;20229;-80
2023/10/24 04:24:50;;;;;;;12.80;9.30;;;9.60;99.90;;;;;;5040537;28;20618;-80
2023/10/24 04:27:17;;;;;;;12.20;9.43;;;9.60;99.90;;;;;;5036040;28;20498;-77
2023/10/24 04:29:44;;;;;;;15.60;9.67;;;9.60;99.90;;;;;;5036464;28;20258;-78
2023/10/24 04:32:12;;;;;;;13.67;9.57;;;9.60;99.90;;;;;;5038039;28;20269;-82
2023/10/24 04:34:39;;;;;;;13.30;9.40;;;9.60;99.90;;;;;;5032747;28;20221;-80
2023/10/24 04:37:06;;;;;;;10.97;9.33;;;9.70;99.90;;;;;;5036508;28;20222;-80
2023/10/24 04:39:32;;;;;;;13.80;8.93;;;9.60;99.90;;;;;;5041766;28;20228;-80
2023/10/24 04:41:59;;;;;;;11.13;9.60;;;9.70;99.90;;;;;;5043235;28;20226;-81
2023/10/24 04:44:26;;;;;;;10.73;8.73;;;9.70;99.90;;;;;;5047895;28;20629;-80
2023/10/24 04:46:52;;;;;;;10.77;9.00;;;9.70;99.90;;;;;;5041241;28;20581;-80
2023/10/24 04:49:21;;;;;;;12.33;9.43;;;9.70;99.90;;;;;;5042072;28;20223;-80
2023/10/24 04:51:48;;;;;;;12.20;9.13;;;9.70;99.90;;;;;;5046860;28;20260;-80
2023/10/24 04:54:15;;;;;;;10.37;9.13;;;9.70;99.90;;;;;;5042354;28;20748;-80
2023/10/24 04:56:42;;;;;;;13.13;8.87;;;9.70;99.90;;;;;;5043801;28;20227;-82
2023/10/24 04:59:08;;;;;;;11.87;8.67;;;9.70;99.90;;;;;;5042755;28;20223;-81
2023/10/24 05:01:38;;;;;;;12.53;8.57;;;9.70;99.90;;;;;;5042454;28;20245;-83
2023/10/24 05:04:05;;;;;;;14.23;9.23;;;9.70;99.90;;;;;;5041342;28;20233;-80
2023/10/24 05:06:35;;;;;;;14.83;9.97;;;9.70;99.90;;;;;;5043354;28;20657;-83
2023/10/24 05:09:00;;;;;;;12.63;8.40;;;9.70;99.90;;;;;;5052654;28;20231;-81
2023/10/24 05:11:27;;;;;;;11.93;9.47;;;9.80;99.90;;;;;;5039907;28;20780;-83
2023/10/24 05:13:54;;;;;;;13.83;9.70;;;9.70;99.90;;;;;;5044490;28;20231;-83
2023/10/24 05:16:20;;;;;;;16.13;9.50;;;9.80;99.90;;;;;;5042044;28;20226;-81
2023/10/24 05:18:47;;;;;;;15.17;9.33;;;9.70;99.90;;;;;;5044066;28;20232;-81
2023/10/24 05:21:14;;;;;;;13.00;9.53;;;9.70;99.90;;;;;;5059714;28;20227;-82
2023/10/24 05:23:42;;;;;;;14.53;9.53;;;9.70;99.90;;;;;;5046874;28;20219;-78
2023/10/24 05:26:09;;;;;;;13.90;8.90;;;9.70;99.90;;;;;;5039066;28;20219;-77
2023/10/24 05:28:35;;;;;;;11.80;9.17;;;9.70;99.90;;;;;;5045055;28;20235;-77
2023/10/24 05:31:07;;;;;;;13.90;9.60;;;9.70;99.90;;;;;;5048862;28;20723;-77
2023/10/24 05:33:34;;;;;;;12.43;9.00;;;9.60;99.90;;;;;;5040121;28;20772;-78
2023/10/24 05:36:01;;;;;;;14.43;9.77;;;9.60;99.90;;;;;;5038451;28;20224;-77
2023/10/24 05:38:28;;;;;;;14.33;9.70;;;9.60;99.90;;;;;;5038997;28;20310;-77
2023/10/24 05:40:56;;;;;;;13.20;9.00;;;9.60;99.90;;;;;;5042484;28;20219;-83
2023/10/24 05:43:23;;;;;;;10.67;8.90;;;9.60;99.90;;;;;;5058242;28;20227;-85
2023/10/24 05:45:50;;;;;;;13.70;8.47;;;9.60;99.90;;;;;;5051052;28;20702;-83
2023/10/24 05:48:17;;;;;;;12.10;9.60;;;9.50;99.90;;;;;;5065570;28;20257;-84
2023/10/24 05:50:44;;;;;;;14.97;9.30;;;9.60;99.90;;;;;;5056111;28;20714;-83
2023/10/24 05:53:11;;;;;;;13.23;9.27;;;9.60;99.90;;;;;;5064282;28;20773;-86
2023/10/24 05:55:40;;;;;;;14.40;9.10;;;9.50;99.90;;;;;;5064243;28;20646;-85
2023/10/24 05:58:08;;;;;;;11.67;9.10;;;9.60;99.90;;;;;;5053024;28;20959;-84
2023/10/24 06:00:35;;;;;;;12.63;9.00;;;9.60;99.90;;;;;;5041618;28;21291;-83
2023/10/24 06:03:01;;;;;;;12.73;9.40;;;9.60;99.90;;;;;;5022653;28;20346;-83
2023/10/24 06:05:28;;;;;;;14.93;9.40;;;9.60;99.90;;;;;;5041807;28;20254;-86
2023/10/24 06:07:55;;;;;;;16.03;10.77;;;9.60;99.90;;;;;;5051164;28;20713;-82
2023/10/24 06:10:21;;;;;;;14.63;9.43;;;9.60;99.90;;;;;;5049215;28;20222;-82
2023/10/24 06:12:48;;;;;;;13.40;9.47;;;9.60;99.90;;;;;;5054122;28;20726;-84
2023/10/24 06:15:16;;;;;;;14.87;9.50;;;9.60;99.90;;;;;;5049616;28;20241;-86
2023/10/24 06:17:43;;;;;;;13.47;9.60;;;9.60;99.90;;;;;;5047910;28;20230;-85
2023/10/24 06:20:10;;;;;;;13.67;10.03;;;9.60;99.90;;;;;;5049397;28;20230;-82
2023/10/24 06:22:37;;;;;;;16.60;10.20;;;9.60;99.90;;;;;;5044087;28;20228;-82
2023/10/24 06:25:04;;;;;;;13.47;9.80;;;9.60;99.90;;;;;;5063895;28;20307;-82
2023/10/24 06:27:31;;;;;;;13.37;9.33;;;9.60;99.90;;;;;;5043071;28;20240;-84
2023/10/24 06:29:57;;;;;;;12.80;9.60;;;9.60;99.90;;;;;;5049648;28;20246;-82
2023/10/24 06:32:25;;;;;;;13.83;9.73;;;9.60;99.90;;;;;;5041721;28;20222;-82
2023/10/24 06:34:52;;;;;;;16.03;10.33;;;9.60;99.90;;;;;;5040734;28;20618;-83
2023/10/24 06:37:18;;;;;;;13.63;9.70;;;9.60;99.90;;;;;;5046293;28;20223;-82
2023/10/24 06:39:45;;;;;;;12.73;8.87;;;9.60;99.90;;;;;;5049901;28;20245;-83
2023/10/24 06:42:12;;;;;;;12.90;9.80;;;9.70;99.90;;;;;;5039429;28;20723;-82
2023/10/24 06:44:39;;;;;;;13.47;9.60;;;9.70;99.90;;;;;;5041790;28;20247;-84
2023/10/24 06:47:05;;;;;;;12.60;9.60;;;9.70;99.90;;;;;;5041831;28;20240;-84
2023/10/24 06:49:33;;;;;;;11.10;9.07;;;9.70;99.90;;;;;;5048678;28;20233;-82
2023/10/24 06:52:00;;;;;;;16.67;9.87;;;9.70;99.90;;;;;;5044652;28;20243;-82
2023/10/24 06:54:27;;;;;;;14.20;9.57;;;9.70;99.90;;;;;;5050813;28;20600;-82
2023/10/24 06:56:53;;;;;;;14.10;10.53;;;9.70;99.90;;;;;;5045609;28;20228;-83
2023/10/24 06:59:20;;;;;;;13.33;10.00;;;9.80;99.90;;;;;;5041608;28;20224;-86
2023/10/24 07:01:47;;;;;;;17.40;11.33;;;9.80;99.90;;;;;;5046347;28;20660;-83
2023/10/24 07:04:13;;;;;;;14.40;9.93;;;9.80;99.90;;;;;;5049196;28;20239;-83
2023/10/24 07:06:42;;;;;;;14.60;10.70;;;9.80;99.90;;;;;;5054820;28;20242;-82
2023/10/24 07:09:09;;;;;;;14.63;11.07;;;9.90;99.90;;;;;;5046556;28;20231;-84
2023/10/24 07:11:36;;;;;;;16.30;11.90;;;9.90;99.90;;;;;;5060392;28;20318;-84
2023/10/24 07:14:03;;;;;;;15.40;11.23;;;9.90;99.90;;;;;;5054141;28;20641;-83
2023/10/24 07:16:30;;;;;;;15.07;11.73;;;9.90;99.90;;;;;;5046954;28;20227;-83
2023/10/24 07:18:56;;;;;;;16.63;10.67;;;9.90;99.90;;;;;;5042737;28;20348;-83
2023/10/24 07:21:23;;;;;;;15.67;11.80;;;10.00;99.90;;;;;;5048133;28;20277;-83
2023/10/24 07:23:51;;;;;;;12.90;10.97;;;10.00;99.90;;;;;;5055452;28;20266;-83
2023/10/24 07:26:18;;;;;;;15.67;11.53;;;10.00;99.90;;;;;;5047710;28;20217;-86
2023/10/24 07:28:45;;;;;;;15.27;11.50;;;10.00;99.90;;;;;;5042451;28;20321;-84
2023/10/24 07:31:12;;;;;;;16.90;11.33;;;10.10;99.90;;;;;;5041344;28;20299;-83
2023/10/24 07:33:38;;;;;;;14.53;11.23;;;10.10;99.90;;;;;;5049279;28;20223;-83
2023/10/24 07:36:06;;;;;;;15.83;11.77;;;10.10;99.90;;;;;;5052023;28;20224;-81
2023/10/24 07:38:33;;;;;;;12.43;10.50;;;10.20;99.90;;;;;;5055798;28;20221;-84
2023/10/24 07:41:02;;;;;;;14.90;11.03;;;10.20;99.90;;;;;;5033175;28;20227;-85
2023/10/24 07:43:29;;;;;;;14.23;11.13;;;10.20;99.90;;;;;;5043625;28;20864;-82
2023/10/24 07:45:56;;;;;;;15.17;11.37;;;10.30;99.90;;;;;;5049335;28;20592;-84
2023/10/24 07:48:23;;;;;;;15.20;11.63;;;10.30;99.90;;;;;;5060376;28;20235;-82
2023/10/24 07:50:51;;;;;;;12.13;10.43;;;10.30;99.90;;;;;;5049569;28;20318;-85
2023/10/24 07:53:18;;;;;;;14.83;11.40;;;10.30;99.90;;;;;;5044164;28;20211;-83
2023/10/24 07:55:45;;;;;;;14.00;10.70;;;10.30;99.90;;;;;;5046286;28;20583;-88
2023/10/24 07:58:13;;;;;;;13.47;10.93;;;10.30;99.90;;;;;;5038946;28;20211;-85
2023/10/24 08:00:40;;;;;;;15.00;9.90;;;10.30;99.90;;;;;;5038704;28;20223;-82
2023/10/24 08:03:06;;;;;;;13.87;11.07;;;10.30;99.90;;;;;;5050806;28;20227;-86
2023/10/24 08:05:33;;;;;;;16.03;10.97;;;10.30;99.90;;;;;;5056368;28;20228;-83
2023/10/24 08:08:00;;;;;;;14.50;11.30;;;10.30;99.90;;;;;;5051128;28;20227;-82
2023/10/24 08:10:27;;;;;;;13.87;11.40;;;10.30;99.90;;;;;;5042639;28;20315;-82
2023/10/24 08:12:53;;;;;;;16.43;11.23;;;10.40;99.90;;;;;;5041531;28;20228;-82
2023/10/24 08:15:21;;;;;;;14.43;10.70;;;10.40;99.90;;;;;;5034200;28;20221;-82
2023/10/24 08:17:48;;;;;;;12.97;10.40;;;10.40;99.90;;;;;;5039351;28;20319;-82
2023/10/24 08:20:15;;;;;;;14.13;10.83;;;10.40;99.90;;;;;;5036178;28;20228;-83
2023/10/24 08:22:41;;;;;;;15.20;10.77;;;10.40;99.90;;;;;;5038484;28;20223;-84
2023/10/24 08:25:08;;;;;;;16.43;10.90;;;10.40;99.90;;;;;;5042566;28;20581;-83
2023/10/24 08:27:35;;;;;;;14.53;11.23;;;10.40;99.90;;;;;;5052128;28;20224;-82
2023/10/24 08:30:02;;;;;;;18.50;11.83;;;10.40;99.90;;;;;;5046210;28;20604;-84
2023/10/24 08:32:30;;;;;;;13.60;12.20;;;10.40;99.90;;;;;;5042630;28;20845;-82
2023/10/24 08:34:57;;;;;;;14.70;11.40;;;10.40;99.90;;;;;;5049980;28;20224;-82
2023/10/24 08:37:24;;;;;;;14.00;11.40;;;10.40;99.90;;;;;;5044224;28;20600;-82
2023/10/24 08:39:50;;;;;;;14.40;11.53;;;10.50;99.90;;;;;;5040290;28;20229;-82
2023/10/24 08:42:18;;;;;;;16.13;12.03;;;10.50;99.90;;;;;;5048271;28;20216;-83
2023/10/24 08:44:45;;;;;;;16.10;11.67;;;10.50;99.90;;;;;;5037730;28;20242;-82
2023/10/24 08:47:14;;;;;;;17.33;11.90;;;10.50;99.90;;;;;;5051281;28;20290;-82
2023/10/24 08:49:42;;;;;;;12.60;11.13;;;10.50;99.90;;;;;;5047360;28;20223;-84
2023/10/24 08:52:10;;;;;;;15.60;12.17;;;10.50;99.90;;;;;;5039514;28;20220;-83
2023/10/24 08:54:37;;;;;;;15.97;11.77;;;10.50;99.90;;;;;;5044416;28;20886;-82
2023/10/24 08:57:04;;;;;;;14.40;11.67;;;10.50;99.90;;;;;;5038550;28;20222;-83
2023/10/24 08:59:35;;;;;;;14.37;11.20;;;10.50;99.90;;;;;;5043578;28;20248;-82
2023/10/24 09:02:01;;;;;;;12.43;11.23;;;10.50;99.90;;;;;;5038562;28;20247;-82
2023/10/24 09:04:31;;;;;;;15.27;11.70;;;10.50;99.90;;;;;;5038757;28;20241;-82
2023/10/24 09:06:59;;;;;;;13.10;11.47;;;10.50;99.90;;;;;;5051551;28;20220;-82
2023/10/24 09:09:25;;;;;;;15.23;12.10;;;10.60;99.90;;;;;;5047484;28;20273;-84
2023/10/24 09:11:55;;;;;;;16.93;12.37;;;10.60;99.90;;;;;;5041313;28;20219;-82
2023/10/24 09:14:22;;;;;;;15.10;12.30;;;10.60;99.90;;;;;;5022236;28;20235;-81
2023/10/24 09:16:54;;;;;;;13.63;11.73;;;10.60;99.90;;;;;;5047047;28;20227;-82
2023/10/24 09:19:21;;;;;;;14.43;12.00;;;10.60;99.90;;;;;;5038999;28;20580;-84
2023/10/24 09:21:48;;;;;;;18.27;12.70;;;10.60;99.90;;;;;;5034194;28;20213;-82
2023/10/24 09:24:17;;;;;;;16.63;11.73;;;10.60;99.90;;;;;;5036846;28;20255;-81
2023/10/24 09:26:51;;;;;;;16.97;12.70;;;10.60;99.90;;;;;;5038156;28;20220;-82
2023/10/24 09:29:18;;;;;;;16.17;12.77;;;10.70;99.90;;;;;;5046320;28;20230;-82
2023/10/24 09:31:46;;;;;;;13.07;10.67;;;10.80;99.90;;;;;;5052532;28;20274;-82
2023/10/24 09:34:12;;;;;;;13.00;11.80;;;10.80;99.90;;;;;;5050293;28;20990;-82
2023/10/24 09:36:39;;;;;;;15.20;12.33;;;10.80;99.90;;;;;;5043305;28;20226;-82
2023/10/24 09:39:06;;;;;;;15.60;12.50;;;10.90;99.90;;;;;;5037576;28;20763;-82
2023/10/24 09:41:35;;;;;;;16.13;12.27;;;11.00;99.90;;;;;;5043620;28;20234;-83
2023/10/24 09:44:02;;;;;;;17.70;11.90;;;11.00;99.90;;;;;;5054245;28;20224;-82
2023/10/24 09:46:31;;;;;;;17.23;11.87;;;11.10;99.90;;;;;;5043239;28;20279;-83
2023/10/24 09:48:59;;;;;;;13.07;11.20;;;11.20;99.90;;;;;;5046706;28;20222;-82
2023/10/24 09:51:26;;;;;;;16.80;12.57;;;11.20;99.90;;;;;;5033063;28;20235;-83
2023/10/24 09:53:53;;;;;;;12.50;11.00;;;11.30;99.90;;;;;;5046324;28;20220;-82
2023/10/24 09:56:21;;;;;;;13.60;11.37;;;11.30;99.90;;;;;;5049513;28;20240;-82
2023/10/24 09:58:51;;;;;;;13.27;10.77;;;11.30;99.90;;;;;;5048510;28;20409;-82
2023/10/24 10:01:18;;;;;;;13.77;11.33;;;11.40;99.90;;;;;;5047724;28;20628;-82
2023/10/24 10:03:45;;;;;;;13.77;10.50;;;11.40;99.90;;;;;;5043401;28;20218;-83
2023/10/24 10:06:13;;;;;;;13.67;11.67;;;11.40;99.90;;;;;;5046994;28;20221;-82
2023/10/24 10:08:42;;;;;;;13.37;11.53;;;11.50;99.90;;;;;;5042759;28;20237;-82
2023/10/24 10:11:09;;;;;;;12.37;10.80;;;11.50;99.90;;;;;;5045698;28;20216;-83
2023/10/24 10:13:38;;;;;;;14.27;9.57;;;11.60;99.90;;;;;;5055469;28;20843;-82
2023/10/24 10:16:19;;;;;;;13.37;10.83;;;11.60;99.90;;;;;;5042696;28;20235;-83
2023/10/24 10:19:01;;;;;;;12.10;10.10;;;11.60;99.90;;;;;;5046589;28;20748;-83
2023/10/24 10:21:40;;;;;;;12.00;9.47;;;11.70;99.90;;;;;;5034503;28;20700;-82
2023/10/24 10:24:25;;;;;;;11.13;9.43;;;11.80;99.90;;;;;;5045363;28;20225;-85
2023/10/24 10:27:04;;;;;;;13.30;8.90;;;11.80;99.90;;;;;;5059007;28;20212;-81
2023/10/24 10:29:43;;;;;;;13.60;9.83;;;11.80;99.90;;;;;;5063598;28;20233;-84
2023/10/24 10:32:23;;;;;;;13.17;10.07;;;11.80;99.90;;;;;;5054485;28;20233;-82
2023/10/24 10:34:51;;;;;;;16.37;10.70;;;11.90;99.90;;;;;;5053636;28;20318;-81
2023/10/24 10:37:18;;;;;;;13.23;11.40;;;11.90;99.90;;;;;;5040654;28;20212;-81
2023/10/24 10:40:18;;;;;;;10.77;9.07;;;11.90;99.90;;;;;;5044565;28;20559;-81
2023/10/24 10:42:48;;;;;;;11.17;9.03;;;11.90;99.90;;;;;;5042456;28;20227;-81
2023/10/24 10:45:24;;;;;;;12.87;10.50;;;12.00;99.90;;;;;;5045906;28;20230;-81
2023/10/24 10:47:52;;;;;;;13.47;9.57;;;12.00;99.90;;;;;;5045014;28;20423;-81
2023/10/24 10:50:23;;;;;;;14.57;11.33;;;12.00;99.90;;;;;;5043464;28;20216;-81
2023/10/24 10:52:57;;;;;;;13.47;11.30;;;12.10;99.90;;;;;;5038058;28;20266;-81
2023/10/24 10:55:47;;;;;;;11.13;9.93;;;12.10;99.90;;;;;;5035353;28;20281;-81
2023/10/24 10:58:22;;;;;;;11.27;10.07;;;12.20;99.90;;;;;;5044131;28;20224;-81
2023/10/24 11:00:59;;;;;;;13.13;8.90;;;12.20;99.90;;;;;;5041765;28;20597;-81
2023/10/24 11:03:39;;;;;;;13.00;9.30;;;12.20;99.90;;;;;;5037159;28;20263;-81
2023/10/24 11:06:10;;;;;;;11.87;8.90;;;12.20;99.90;;;;;;5041575;28;20233;-81
2023/10/24 11:08:36;;;;;;;11.73;9.67;;;12.30;99.90;;;;;;5042315;28;20227;-81
2023/10/24 11:11:04;;;;;;;11.07;9.83;;;12.30;99.90;;;;;;5040194;28;20221;-81
2023/10/24 11:13:36;;;;;;;13.90;10.87;;;12.30;99.90;;;;;;5043620;28;20224;-81
2023/10/24 11:16:04;;;;;;;11.23;10.00;;;12.30;99.90;;;;;;5045162;28;20224;-81
2023/10/24 11:18:32;;;;;;;12.57;10.47;;;12.30;99.90;;;;;;5042193;28;20540;-81
2023/10/24 11:21:01;;;;;;;12.77;11.10;;;12.30;99.90;;;;;;5044623;28;20646;-80
2023/10/24 11:23:28;;;;;;;12.27;9.33;;;12.30;99.90;;;;;;5042121;28;20258;-80
2023/10/24 11:25:55;;;;;;;13.20;10.07;;;12.30;99.90;;;;;;5048333;28;20231;-80
2023/10/24 11:28:24;;;;;;;12.50;10.03;;;12.40;99.90;;;;;;5045481;28;20221;-81
2023/10/24 11:30:51;;;;;;;12.40;9.77;;;12.40;99.90;;;;;;5047420;28;20324;-81
2023/10/24 11:33:18;;;;;;;11.80;10.27;;;12.40;99.90;;;;;;5039450;28;20289;-82
2023/10/24 11:35:46;;;;;;;13.80;9.67;;;12.40;99.90;;;;;;5045694;28;20240;-81
2023/10/24 11:38:15;;;;;;;11.53;9.40;;;12.40;99.90;;;;;;5044484;28;20236;-81
2023/10/24 11:40:45;;;;;;;10.97;9.77;;;12.50;99.90;;;;;;5049198;28;20324;-82
2023/10/24 11:43:13;;;;;;;14.07;10.07;;;12.50;99.90;;;;;;5047263;28;20215;-80
2023/10/24 11:45:40;;;;;;;13.57;9.83;;;12.50;99.90;;;;;;5052126;28;20231;-81
2023/10/24 11:48:07;;;;;;;11.90;10.17;;;12.60;99.90;;;;;;5042430;28;20223;-82
2023/10/24 11:50:41;;;;;;;11.27;9.10;;;12.60;99.90;;;;;;5042374;28;20494;-80
2023/10/24 11:53:23;;;;;;;12.37;9.77;;;12.70;99.90;;;;;;5039045;28;20237;-80
2023/10/24 11:55:55;;;;;;;12.57;9.80;;;12.80;99.90;;;;;;5051280;28;20287;-79
2023/10/24 11:58:33;;;;;;;11.87;10.37;;;12.80;99.90;;;;;;5054552;28;20232;-79
2023/10/24 12:01:02;;;;;;;14.87;9.60;;;12.80;99.90;;;;;;5051997;28;20316;-80
2023/10/24 12:03:49;;;;;;;10.30;9.07;;;12.80;99.90;;;;;;5042402;28;20262;-79
2023/10/24 12:06:17;;;;;;;10.73;8.60;;;12.90;99.90;;;;;;5045389;28;20245;-80
2023/10/24 12:08:45;;;;;;;12.20;9.40;;;12.90;99.90;;;;;;5045832;28;20234;-79
2023/10/24 12:11:13;;;;;;;10.93;8.70;;;12.90;99.90;;;;;;5038609;28;20242;-79
2023/10/24 12:13:40;;;;;;;12.63;9.47;;;12.80;99.90;;;;;;5042199;28;20237;-79
2023/10/24 12:16:07;;;;;;;11.13;8.37;;;12.80;99.90;;;;;;5036426;28;20232;-79
2023/10/24 12:18:36;;;;;;;10.93;9.03;;;12.80;99.90;;;;;;5041904;28;20237;-80
2023/10/24 12:21:03;;;;;;;10.73;9.00;;;12.80;99.90;;;;;;5045303;28;20303;-79
2023/10/24 12:23:29;;;;;;;10.40;8.90;;;12.80;99.90;;;;;;5047270;28;20233;-79
2023/10/24 12:25:57;;;;;;;11.30;8.43;;;12.80;99.90;;;;;;5040412;28;20302;-79
2023/10/24 12:28:24;;;;;;;11.07;8.37;;;12.80;99.90;;;;;;5041645;28;20606;-79
2023/10/24 12:30:52;;;;;;;10.43;8.63;;;12.80;99.90;;;;;;5041651;28;20233;-79
2023/10/24 12:33:19;;;;;;;11.00;8.50;;;12.80;99.90;;;;;;5043097;28;20331;-79
2023/10/24 12:35:47;;;;;;;9.43;8.17;;;12.80;99.90;;;;;;5054362;28;20225;-78
2023/10/24 12:38:15;;;;;;;11.00;8.10;;;12.80;99.90;;;;;;5041419;28;20230;-79
2023/10/24 12:40:41;;;;;;;10.20;7.40;;;12.80;99.90;;;;;;5030349;28;20262;-79
2023/10/24 12:43:09;;;;;;;10.40;7.80;;;12.80;99.90;;;;;;5037017;28;20229;-78
2023/10/24 12:45:36;;;;;;;8.90;7.37;;;12.80;99.90;;;;;;5046498;28;20232;-79